createdAt,value
2023-05-12T00:01:55.412Z,74.36
2023-05-12T00:04:22.147Z,74.16
2023-05-12T00:06:48.937Z,73.86
2023-05-12T00:09:15.556Z,74.18
2023-05-12T00:11:42.270Z,73.67
2023-05-12T00:14:09.020Z,73.92
2023-05-12T00:16:35.933Z,73.62
2023-05-12T00:19:02.642Z,73.89
2023-05-12T00:21:29.406Z,73.54
2023-05-12T00:23:56.397Z,73.62
2023-05-12T00:26:23.059Z,73.59
2023-05-12T00:28:49.823Z,73.56
2023-05-12T00:31:16.632Z,73.38
2023-05-12T00:33:43.279Z,73.75
2023-05-12T00:36:10.069Z,73.60
2023-05-12T00:38:37.390Z,73.45
2023-05-12T00:41:04.663Z,73.51
2023-05-12T00:43:31.875Z,73.53
2023-05-12T00:45:59.065Z,73.33
2023-05-12T00:48:26.275Z,73.39
2023-05-12T00:50:54.707Z,73.63
2023-05-12T00:53:21.574Z,73.76
2023-05-12T00:55:48.254Z,73.59
2023-05-12T00:58:15.558Z,73.47
2023-05-12T01:00:42.228Z,73.69
2023-05-12T01:03:09.049Z,73.92
2023-05-12T01:06:04.910Z,73.52
2023-05-12T01:08:32.695Z,74.04
2023-05-12T01:10:59.985Z,74.25
2023-05-12T01:13:27.990Z,73.93
2023-05-12T01:15:56.629Z,74.11
2023-05-12T01:18:24.282Z,74.09
2023-05-12T01:20:53.584Z,73.72
2023-05-12T01:23:27.302Z,73.82
2023-05-12T01:25:55.002Z,74.33
2023-05-12T01:28:21.814Z,74.16
2023-05-12T01:30:50.406Z,73.96
2023-05-12T01:33:17.164Z,74.06
2023-05-12T01:35:43.821Z,73.89
2023-05-12T01:38:10.513Z,73.77
2023-05-12T01:40:39.604Z,73.84
2023-05-12T01:43:06.568Z,73.96
2023-05-12T01:45:33.466Z,74.10
2023-05-12T01:48:00.343Z,74.16
2023-05-12T01:50:27.524Z,74.43
2023-05-12T01:52:54.917Z,74.21
2023-05-12T01:55:22.108Z,74.04
2023-05-12T01:57:55.264Z,73.72
2023-05-12T02:00:22.771Z,74.24
2023-05-12T02:02:52.470Z,73.92
2023-05-12T02:05:19.279Z,74.00
2023-05-12T02:07:49.122Z,73.95
2023-05-12T02:10:16.640Z,73.78
2023-05-12T02:12:43.743Z,73.76
2023-05-12T02:15:10.914Z,73.61
2023-05-12T02:17:42.256Z,73.51
2023-05-12T02:20:11.937Z,73.81
2023-05-12T02:22:38.571Z,73.84
2023-05-12T02:25:05.774Z,73.68
2023-05-12T02:27:32.697Z,73.72
2023-05-12T02:29:59.448Z,73.51
2023-05-12T02:32:28.186Z,73.55
2023-05-12T02:34:58.071Z,73.44
2023-05-12T02:37:24.996Z,73.44
2023-05-12T02:39:51.645Z,73.27
2023-05-12T02:42:18.826Z,73.31
2023-05-12T02:44:45.564Z,73.28
2023-05-12T02:47:12.247Z,73.36
2023-05-12T02:49:38.987Z,73.45
2023-05-12T02:52:06.334Z,73.45
2023-05-12T02:54:33.099Z,73.71
2023-05-12T02:57:04.819Z,74.08
2023-05-12T02:59:31.541Z,73.66
2023-05-12T03:01:58.240Z,73.84
2023-05-12T03:04:24.896Z,73.74
2023-05-12T03:06:51.683Z,73.72
2023-05-12T03:09:18.459Z,73.71
2023-05-12T03:11:45.147Z,74.29
2023-05-12T03:14:11.750Z,73.81
2023-05-12T03:16:38.605Z,73.96
2023-05-12T03:19:05.785Z,73.78
2023-05-12T03:21:32.654Z,74.30
2023-05-12T03:23:59.342Z,74.25
2023-05-12T03:26:26.160Z,74.16
2023-05-12T03:28:52.924Z,74.39
2023-05-12T03:31:19.693Z,74.49
2023-05-12T03:33:46.847Z,74.78
2023-05-12T03:36:13.616Z,74.99
2023-05-12T03:38:40.384Z,75.01
2023-05-12T03:41:07.711Z,74.78
2023-05-12T03:43:35.916Z,74.60
2023-05-12T03:46:03.843Z,74.34
2023-05-12T03:48:30.824Z,74.01
2023-05-12T03:50:57.559Z,74.00
2023-05-12T03:53:24.227Z,74.01
2023-05-12T03:55:51.101Z,74.15
2023-05-12T03:58:18.210Z,73.91
2023-05-12T04:00:46.754Z,73.87
2023-05-12T04:03:13.486Z,73.72
2023-05-12T04:05:40.302Z,73.99
2023-05-12T04:08:07.080Z,73.67
2023-05-12T04:10:43.275Z,73.72
2023-05-12T04:13:09.872Z,74.04
2023-05-12T04:15:36.622Z,73.94
2023-05-12T04:18:03.909Z,74.12
2023-05-12T04:20:30.572Z,74.22
2023-05-12T04:22:57.183Z,73.60
2023-05-12T04:25:23.815Z,73.96
2023-05-12T04:27:50.479Z,74.00
2023-05-12T04:30:17.060Z,73.12
2023-05-12T04:32:44.601Z,73.80
2023-05-12T04:35:11.601Z,73.85
2023-05-12T04:37:38.832Z,73.97
2023-05-12T04:40:07.302Z,73.82
2023-05-12T04:42:34.320Z,73.76
2023-05-12T04:45:01.182Z,73.87
2023-05-12T04:47:28.557Z,73.95
2023-05-12T04:49:55.199Z,73.79
2023-05-12T04:52:23.979Z,73.98
2023-05-12T04:54:52.029Z,73.32
2023-05-12T04:57:18.763Z,73.29
2023-05-12T04:59:45.541Z,72.87
2023-05-12T05:02:12.742Z,73.24
2023-05-12T05:04:39.561Z,73.01
2023-05-12T05:07:06.324Z,72.61
2023-05-12T05:09:35.592Z,73.18
2023-05-12T05:12:03.234Z,72.97
2023-05-12T05:14:29.934Z,73.08
2023-05-12T05:16:57.007Z,72.61
2023-05-12T05:19:36.446Z,73.05
2023-05-12T05:22:11.727Z,72.94
2023-05-12T05:24:38.402Z,73.04
2023-05-12T05:27:05.421Z,73.11
2023-05-12T05:29:32.118Z,73.21
2023-05-12T05:31:58.724Z,73.27
2023-05-12T05:34:25.528Z,73.58
2023-05-12T05:36:52.312Z,73.55
2023-05-12T05:39:18.978Z,73.50
2023-05-12T05:41:46.453Z,73.59
2023-05-12T05:44:13.805Z,73.93
2023-05-12T05:46:40.532Z,73.54
2023-05-12T05:49:07.264Z,72.90
2023-05-12T05:51:34.105Z,72.98
2023-05-12T05:54:00.762Z,72.27
2023-05-12T05:56:27.485Z,72.71
2023-05-12T05:58:54.240Z,72.24
2023-05-12T06:01:20.927Z,72.17
2023-05-12T06:03:47.686Z,72.11
2023-05-12T06:06:15.938Z,72.37
2023-05-12T06:08:42.565Z,72.36
2023-05-12T06:11:09.238Z,72.25
2023-05-12T06:13:36.480Z,72.63
2023-05-12T06:16:03.559Z,72.17
2023-05-12T06:18:30.435Z,72.09
2023-05-12T06:20:57.209Z,72.57
2023-05-12T06:23:23.929Z,71.77
2023-05-12T06:25:50.793Z,72.37
2023-05-12T06:28:17.436Z,72.48
2023-05-12T06:30:44.341Z,72.46
2023-05-12T06:33:11.081Z,72.44
2023-05-12T06:35:37.761Z,72.50
2023-05-12T06:38:06.014Z,72.39
2023-05-12T06:40:33.046Z,71.90
2023-05-12T06:42:59.714Z,72.37
2023-05-12T06:45:26.671Z,72.24
2023-05-12T06:47:53.369Z,71.95
2023-05-12T06:50:20.196Z,72.30
2023-05-12T06:52:51.704Z,72.06
2023-05-12T06:55:20.607Z,71.12
2023-05-12T06:57:47.811Z,71.62
2023-05-12T07:00:14.848Z,71.21
2023-05-12T07:02:41.847Z,70.76
2023-05-12T07:05:08.774Z,71.28
2023-05-12T07:07:36.011Z,72.19
2023-05-12T07:10:02.656Z,72.02
2023-05-12T07:12:29.455Z,71.88
2023-05-12T07:14:56.125Z,71.84
2023-05-12T07:17:22.814Z,71.79
2023-05-12T07:19:49.475Z,71.82
2023-05-12T07:22:16.211Z,71.58
2023-05-12T07:24:43.338Z,71.60
2023-05-12T07:27:10.010Z,72.08
2023-05-12T07:29:36.655Z,71.86
2023-05-12T07:32:03.453Z,71.64
2023-05-12T07:34:32.589Z,72.02
2023-05-12T07:37:02.288Z,72.83
2023-05-12T07:39:30.914Z,72.30
2023-05-12T07:41:58.265Z,71.68
2023-05-12T07:44:26.072Z,70.62
2023-05-12T07:46:52.804Z,69.41
2023-05-12T07:49:19.431Z,69.13
2023-05-12T07:51:46.043Z,67.01
2023-05-12T07:54:13.412Z,66.85
2023-05-12T07:56:40.130Z,67.81
2023-05-12T07:59:07.271Z,65.55
2023-05-12T08:01:34.819Z,64.11
2023-05-12T08:04:01.651Z,66.41
2023-05-12T08:06:28.491Z,66.53
2023-05-12T08:08:58.205Z,64.12
2023-05-12T08:11:26.037Z,63.94
2023-05-12T08:13:53.137Z,66.87
2023-05-12T08:16:19.984Z,66.42
2023-05-12T08:18:46.714Z,64.86
2023-05-12T08:21:13.396Z,65.24
2023-05-12T08:23:40.262Z,64.92
2023-05-12T08:26:06.947Z,64.49
2023-05-12T08:28:34.217Z,65.21
2023-05-12T08:31:04.112Z,65.64
2023-05-12T08:33:31.587Z,64.60
2023-05-12T08:35:58.437Z,66.08
2023-05-12T08:38:25.227Z,69.33
2023-05-12T08:41:10.469Z,68.10
2023-05-12T08:43:45.281Z,69.40
2023-05-12T08:46:13.166Z,69.54
2023-05-12T08:48:40.764Z,69.18
2023-05-12T08:51:11.696Z,67.92
2023-05-12T08:53:42.604Z,67.37
2023-05-12T08:58:42.893Z,64.28
2023-05-12T09:01:11.637Z,61.13
2023-05-12T09:03:38.884Z,63.08
2023-05-12T09:06:06.630Z,60.30
2023-05-12T09:08:34.965Z,59.08
2023-05-12T09:11:02.461Z,58.96
2023-05-12T09:13:38.347Z,58.36
2023-05-12T09:16:11.271Z,58.89
2023-05-12T09:18:56.476Z,59.44
2023-05-12T09:21:24.134Z,58.89
2023-05-12T09:23:58.757Z,60.99
2023-05-12T09:26:27.380Z,58.83
2023-05-12T09:28:55.909Z,57.08
2023-05-12T09:31:24.801Z,54.95
2023-05-12T09:33:52.310Z,53.23
2023-05-12T09:36:24.051Z,52.20
2023-05-12T09:39:08.355Z,51.02
2023-05-12T09:41:35.563Z,50.14
2023-05-12T09:44:02.812Z,52.17
2023-05-12T09:46:29.578Z,52.65
2023-05-12T09:49:00.173Z,53.35
2023-05-12T09:51:27.403Z,52.77
2023-05-12T09:53:54.104Z,53.19
2023-05-12T09:56:22.028Z,51.77
2023-05-12T09:58:50.102Z,52.30
2023-05-12T10:01:23.356Z,50.60
2023-05-12T10:03:53.004Z,50.35
2023-05-12T10:06:40.745Z,50.19
2023-05-12T10:09:21.726Z,50.78
2023-05-12T10:11:53.515Z,48.64
2023-05-12T10:14:22.868Z,48.82
2023-05-12T10:16:50.286Z,49.60
2023-05-12T10:19:18.653Z,49.01
2023-05-12T10:21:46.957Z,48.52
2023-05-12T10:24:17.291Z,50.98
2023-05-12T10:26:44.730Z,51.27
2023-05-12T10:29:12.740Z,52.41
2023-05-12T10:31:40.004Z,51.70
2023-05-12T10:34:06.897Z,50.36
2023-05-12T10:36:47.496Z,48.42
2023-05-12T10:39:15.529Z,46.64
2023-05-12T10:41:45.483Z,44.13
2023-05-12T10:44:12.456Z,44.60
2023-05-12T10:46:39.201Z,45.95
2023-05-12T10:49:05.815Z,47.63
2023-05-12T10:51:35.137Z,47.52
2023-05-12T10:54:04.480Z,48.53
2023-05-12T10:56:43.228Z,48.33
2023-05-12T10:59:20.266Z,48.17
2023-05-12T11:02:06.612Z,48.80
2023-05-12T11:04:43.970Z,47.62
2023-05-12T11:07:14.355Z,46.93
2023-05-12T11:09:56.855Z,45.25
2023-05-12T11:12:27.310Z,43.21
2023-05-12T11:14:54.240Z,42.62
2023-05-12T11:17:20.906Z,42.50
2023-05-12T11:19:49.520Z,42.06
2023-05-12T11:22:21.458Z,41.94
2023-05-12T11:24:48.850Z,41.46
2023-05-12T11:27:17.549Z,40.07
2023-05-12T11:29:47.041Z,40.72
2023-05-12T11:32:15.681Z,40.42
2023-05-12T11:34:42.549Z,41.14
2023-05-12T11:37:09.282Z,43.12
2023-05-12T11:39:36.438Z,43.71
2023-05-12T11:42:13.608Z,44.81
2023-05-12T11:44:48.905Z,45.43
2023-05-12T11:47:16.967Z,46.04
2023-05-12T11:49:54.984Z,45.91
2023-05-12T11:52:23.588Z,46.74
2023-05-12T11:54:52.685Z,48.23
2023-05-12T11:57:35.061Z,48.04
2023-05-12T12:00:07.859Z,48.21
2023-05-12T12:02:39.642Z,47.63
2023-05-12T12:05:17.601Z,48.72
2023-05-12T12:07:44.897Z,47.81
2023-05-12T12:10:16.852Z,48.25
2023-05-12T12:12:44.611Z,48.14
2023-05-12T12:15:12.038Z,47.76
2023-05-12T12:17:39.848Z,47.18
2023-05-12T12:20:08.194Z,46.58
2023-05-12T12:22:35.312Z,45.75
2023-05-12T12:25:03.117Z,44.71
2023-05-12T12:27:30.205Z,44.94
2023-05-12T12:29:56.954Z,45.90
2023-05-12T12:32:23.724Z,45.36
2023-05-12T12:34:50.492Z,44.11
2023-05-12T12:37:17.600Z,45.55
2023-05-12T12:39:44.414Z,45.28
2023-05-12T12:42:11.065Z,45.21
2023-05-12T12:44:37.719Z,47.60
2023-05-12T12:47:05.006Z,46.85
2023-05-12T12:49:31.800Z,45.03
2023-05-12T12:51:58.467Z,44.19
2023-05-12T12:54:27.364Z,43.92
2023-05-12T12:56:55.466Z,44.61
2023-05-12T12:59:22.406Z,43.96
2023-05-12T13:01:49.239Z,47.12
2023-05-12T13:04:17.118Z,48.28
2023-05-12T13:06:43.800Z,49.30
2023-05-12T13:09:10.792Z,49.64
2023-05-12T13:11:37.568Z,50.31
2023-05-12T13:14:04.890Z,51.01
2023-05-12T13:16:31.696Z,51.87
2023-05-12T13:18:58.806Z,52.38
2023-05-12T13:21:25.751Z,56.44
2023-05-12T13:23:52.385Z,58.34
2023-05-12T13:26:19.025Z,59.72
2023-05-12T13:28:45.693Z,60.03
2023-05-12T13:31:12.584Z,60.83
2023-05-12T13:33:39.321Z,60.13
2023-05-12T13:36:06.401Z,60.39
2023-05-12T13:38:33.930Z,59.50
2023-05-12T13:41:00.783Z,60.15
2023-05-12T13:43:27.408Z,58.99
2023-05-12T13:45:54.200Z,58.67
2023-05-12T13:48:20.943Z,60.53
2023-05-12T13:50:47.618Z,60.70
2023-05-12T13:53:14.209Z,60.04
2023-05-12T13:55:41.301Z,59.39
2023-05-12T13:58:07.976Z,59.27
2023-05-12T14:00:34.738Z,58.81
2023-05-12T14:03:01.740Z,57.82
2023-05-12T14:05:28.772Z,57.96
2023-05-12T14:07:55.669Z,57.76
2023-05-12T14:10:22.367Z,55.06
2023-05-12T14:12:49.287Z,52.98
2023-05-12T14:15:28.916Z,51.39
2023-05-12T14:18:02.652Z,51.43
2023-05-12T14:20:29.317Z,51.68
2023-05-12T14:22:55.976Z,51.23
2023-05-12T14:25:23.862Z,51.17
2023-05-12T14:27:51.191Z,51.61
2023-05-12T14:30:17.939Z,51.71
2023-05-12T14:32:44.672Z,52.08
2023-05-12T14:35:13.076Z,52.38
2023-05-12T14:37:39.778Z,51.53
2023-05-12T14:40:07.365Z,51.71
2023-05-12T14:42:34.094Z,51.42
2023-05-12T14:45:00.790Z,51.77
2023-05-12T14:47:27.410Z,51.83
2023-05-12T14:49:54.436Z,52.32
2023-05-12T14:52:21.133Z,52.12
2023-05-12T14:54:47.793Z,51.89
2023-05-12T14:57:14.475Z,52.06
2023-05-12T14:59:41.193Z,51.32
2023-05-12T15:02:07.990Z,52.29
2023-05-12T15:04:34.785Z,52.15
2023-05-12T15:07:01.455Z,52.72
2023-05-12T15:09:28.107Z,52.32
2023-05-12T15:11:55.056Z,53.04
2023-05-12T15:14:21.911Z,52.78
2023-05-12T15:16:48.623Z,53.12
2023-05-12T15:19:15.564Z,53.64
2023-05-12T15:21:42.388Z,54.07
2023-05-12T15:24:09.058Z,53.99
2023-05-12T15:26:38.227Z,54.08
2023-05-12T15:29:07.245Z,54.24
2023-05-12T15:31:35.036Z,54.91
2023-05-12T15:34:01.771Z,55.57
2023-05-12T15:36:28.481Z,55.93
2023-05-12T15:38:55.220Z,56.23
2023-05-12T15:41:22.094Z,56.58
2023-05-12T15:43:48.748Z,56.43
2023-05-12T15:46:15.439Z,56.27
2023-05-12T15:48:42.156Z,55.59
2023-05-12T15:51:08.797Z,55.28
2023-05-12T15:53:35.500Z,55.69
2023-05-12T15:56:03.175Z,54.37
2023-05-12T15:58:31.184Z,54.58
2023-05-12T16:00:57.885Z,54.65
2023-05-12T16:03:24.916Z,54.13
2023-05-12T16:05:51.959Z,54.12
2023-05-12T16:08:18.855Z,54.02
2023-05-12T16:10:45.599Z,54.01
2023-05-12T16:13:13.670Z,53.51
2023-05-12T16:15:40.500Z,53.64
2023-05-12T16:18:10.195Z,52.95
2023-05-12T16:20:37.770Z,54.63
2023-05-12T16:23:04.634Z,54.73
2023-05-12T16:25:31.375Z,56.17
2023-05-12T16:27:58.125Z,56.97
2023-05-12T16:30:24.989Z,59.97
2023-05-12T16:32:51.768Z,61.82
2023-05-12T16:35:18.614Z,61.80
2023-05-12T16:37:45.442Z,62.53
2023-05-12T16:40:12.249Z,62.50
2023-05-12T16:42:39.009Z,63.12
2023-05-12T16:45:06.363Z,62.97
2023-05-12T16:47:33.044Z,62.52
2023-05-12T16:49:59.964Z,62.08
2023-05-12T16:52:27.008Z,63.31
2023-05-12T16:54:55.992Z,64.04
2023-05-12T16:57:23.235Z,63.60
2023-05-12T16:59:49.937Z,64.36
2023-05-12T17:02:16.660Z,64.38
2023-05-12T17:04:44.642Z,64.45
2023-05-12T17:07:11.453Z,63.88
2023-05-12T17:09:38.217Z,64.20
2023-05-12T17:12:06.691Z,64.47
2023-05-12T17:14:34.777Z,64.49
2023-05-12T17:17:01.448Z,63.69
2023-05-12T17:19:28.407Z,63.98
2023-05-12T17:21:55.072Z,63.60
2023-05-12T17:24:21.817Z,63.32
2023-05-12T17:26:48.435Z,63.43
2023-05-12T17:29:15.176Z,63.39
2023-05-12T17:31:41.957Z,63.06
2023-05-12T17:34:08.871Z,63.40
2023-05-12T17:36:35.651Z,63.30
2023-05-12T17:39:02.393Z,62.60
2023-05-12T17:41:29.427Z,62.69
2023-05-12T17:43:56.183Z,62.46
2023-05-12T17:46:23.046Z,62.56
2023-05-12T17:48:49.988Z,63.07
2023-05-12T17:51:17.023Z,62.52
2023-05-12T17:53:43.862Z,62.86
2023-05-12T17:56:11.330Z,62.23
2023-05-12T17:58:37.979Z,62.70
2023-05-12T18:01:04.753Z,61.98
2023-05-12T18:03:31.662Z,62.06
2023-05-12T18:05:58.425Z,61.82
2023-05-12T18:08:25.080Z,63.47
2023-05-12T18:10:51.783Z,65.04
2023-05-12T18:13:18.624Z,65.85
2023-05-12T18:15:45.284Z,66.84
2023-05-12T18:18:12.424Z,66.86
2023-05-12T18:20:39.161Z,67.08
2023-05-12T18:23:05.863Z,68.04
2023-05-12T18:25:32.533Z,68.38
2023-05-12T18:27:59.277Z,68.20
2023-05-12T18:30:26.054Z,69.23
2023-05-12T18:32:52.862Z,68.85
2023-05-12T18:35:19.822Z,69.02
2023-05-12T18:37:46.728Z,69.66
2023-05-12T18:40:13.390Z,69.23
2023-05-12T18:42:40.017Z,68.65
2023-05-12T18:45:07.204Z,69.32
2023-05-12T18:47:34.274Z,69.06
2023-05-12T18:50:01.009Z,69.00
2023-05-12T18:52:27.719Z,68.87
2023-05-12T18:54:54.349Z,69.02
2023-05-12T18:57:21.110Z,68.09
2023-05-12T18:59:47.723Z,68.23
2023-05-12T19:02:14.397Z,68.58
2023-05-12T19:04:41.178Z,68.09
2023-05-12T19:07:09.864Z,67.92
2023-05-12T19:09:37.087Z,68.21
2023-05-12T19:12:05.998Z,67.89
2023-05-12T19:14:32.988Z,67.51
2023-05-12T19:16:59.916Z,67.34
2023-05-12T19:19:26.540Z,67.05
2023-05-12T19:21:53.125Z,66.22
2023-05-12T19:24:19.917Z,66.71
2023-05-12T19:26:46.520Z,66.73
2023-05-12T19:29:13.240Z,65.80
2023-05-12T19:31:40.038Z,66.17
2023-05-12T19:34:07.153Z,65.85
2023-05-12T19:36:34.359Z,65.86
2023-05-12T19:39:01.135Z,65.88
2023-05-12T19:41:29.713Z,66.06
2023-05-12T19:43:56.470Z,66.03
2023-05-12T19:46:23.301Z,66.20
2023-05-12T19:48:51.186Z,65.87
2023-05-12T19:51:18.491Z,66.23
2023-05-12T19:53:45.439Z,65.99
2023-05-12T19:56:12.300Z,65.48
2023-05-12T19:58:39.227Z,65.57
2023-05-12T20:01:06.201Z,65.83
2023-05-12T20:03:33.183Z,65.49
2023-05-12T20:06:00.185Z,65.97
2023-05-12T20:08:27.105Z,65.69
2023-05-12T20:10:54.091Z,65.94
2023-05-12T20:13:20.984Z,65.58
2023-05-12T20:15:47.862Z,66.06
2023-05-12T20:18:15.709Z,65.80
2023-05-12T20:20:43.108Z,65.58
2023-05-12T20:23:09.833Z,65.61
2023-05-12T20:25:36.796Z,66.00
2023-05-12T20:28:03.866Z,66.10
2023-05-12T20:30:30.698Z,66.39
2023-05-12T20:32:57.425Z,66.30
2023-05-12T20:35:24.306Z,66.33
2023-05-12T20:37:51.285Z,66.17
2023-05-12T20:40:19.499Z,66.34
2023-05-12T20:42:46.961Z,66.24
2023-05-12T20:45:14.424Z,66.23
2023-05-12T20:47:41.963Z,66.17
2023-05-12T20:50:09.471Z,66.15
2023-05-12T20:52:37.017Z,66.03
2023-05-12T20:55:04.034Z,66.36
2023-05-12T20:57:30.803Z,66.54
2023-05-12T20:59:57.582Z,66.64
2023-05-12T21:02:25.300Z,66.95
2023-05-12T21:04:52.732Z,67.23
2023-05-12T21:07:20.257Z,67.52
2023-05-12T21:09:47.809Z,67.73
2023-05-12T21:12:14.528Z,67.84
2023-05-12T21:14:43.046Z,67.94
2023-05-12T21:17:10.495Z,67.91
2023-05-12T21:19:38.385Z,67.80
2023-05-12T21:22:06.881Z,67.74
2023-05-12T21:24:33.569Z,67.21
2023-05-12T21:27:04.061Z,67.30
2023-05-12T21:29:32.261Z,67.42
2023-05-12T21:31:59.385Z,67.04
2023-05-12T21:34:26.347Z,66.96
2023-05-12T21:36:53.189Z,67.11
2023-05-12T21:39:19.895Z,66.53
2023-05-12T21:41:46.580Z,66.49
2023-05-12T21:44:13.262Z,66.76
2023-05-12T21:46:40.144Z,66.30
2023-05-12T21:49:07.017Z,66.47
2023-05-12T21:51:33.949Z,66.37
2023-05-12T21:54:00.990Z,66.53
2023-05-12T21:56:27.606Z,66.31
2023-05-12T21:58:54.288Z,66.22
2023-05-12T22:01:20.969Z,66.48
2023-05-12T22:03:47.740Z,66.21
2023-05-12T22:06:14.435Z,66.17
2023-05-12T22:08:41.063Z,65.78
2023-05-12T22:11:07.872Z,66.14
2023-05-12T22:13:34.586Z,65.85
2023-05-12T22:16:01.281Z,65.93
2023-05-12T22:18:28.826Z,65.55
2023-05-12T22:20:55.447Z,65.74
2023-05-12T22:23:22.089Z,65.41
2023-05-12T22:25:48.741Z,65.42
2023-05-12T22:28:15.911Z,65.42
2023-05-12T22:30:42.588Z,65.49
2023-05-12T22:33:09.289Z,65.51
2023-05-12T22:35:35.921Z,65.38
2023-05-12T22:38:02.679Z,65.20
2023-05-12T22:40:30.190Z,65.27
2023-05-12T22:42:56.858Z,65.55
2023-05-12T22:45:23.491Z,65.40
2023-05-12T22:47:50.211Z,65.30
2023-05-12T22:50:17.140Z,65.35
2023-05-12T22:52:43.921Z,65.67
2023-05-12T22:55:11.087Z,65.57
2023-05-12T22:57:40.593Z,65.71
2023-05-12T23:00:07.605Z,65.45
2023-05-12T23:02:34.320Z,65.29
2023-05-12T23:05:01.209Z,65.36
2023-05-12T23:07:27.922Z,65.40
2023-05-12T23:09:54.543Z,65.59
2023-05-12T23:12:21.227Z,65.35
2023-05-12T23:14:47.823Z,65.30
2023-05-12T23:17:14.803Z,65.29
2023-05-12T23:19:41.467Z,65.34
2023-05-12T23:22:08.042Z,65.06
2023-05-12T23:24:36.058Z,65.16
2023-05-12T23:27:02.730Z,64.85
2023-05-12T23:29:29.606Z,64.92
2023-05-12T23:31:58.665Z,64.99
2023-05-12T23:34:25.779Z,64.71
2023-05-12T23:36:52.463Z,65.35
2023-05-12T23:39:19.092Z,65.21
2023-05-12T23:41:45.838Z,65.12
2023-05-12T23:44:12.842Z,65.00
2023-05-12T23:46:39.644Z,65.19
2023-05-12T23:49:06.400Z,64.96
2023-05-12T23:51:34.219Z,65.17
2023-05-12T23:54:00.844Z,64.66
2023-05-12T23:56:27.524Z,64.26
2023-05-12T23:58:54.225Z,63.93
